Terminal Aerodrome Forecast
Issued by NWS Twin Cities, MN

Home | Current Version | Previous Version | Graphics & Text | Print | Product List | Glossary On
Versions: 1 2 3 4 5 6 7 8 9 10 11 12
667
FTUS43 KMPX 151720
TAFSTC
TAF
KSTC 151720Z 1518/1618 32014G24KT P6SM -SN SCT015 OVC050
     FM152000 32014G24KT 5SM -SN SCT015 OVC040
      TEMPO 1520/1524 2SM -SN BLSN OVC015
     FM160100 32012G18KT P6SM SCT015 OVC040
     FM161000 32008KT P6SM SCT025 SCT090=

USA.gov is the U.S. government's official web portal to all federal, state and local government web resources and services.